Time;durP1;ratioP1;P1;durP2;ratioP2;P2;SDS_P1;SDS_P2;PMS_P1;PMS_P2;Temp;Humidity;BMP_temperature;BMP_pressure;BME280_temperature;BME280_humidity;BME280_pressure;Samples;Min_cycle;Max_cycle;Signal;HPM_P1;HPM_P2
2023/04/15 00:00:07;;;;;;;6.50;2.25;;;;;;;17.53;53.24;99198.63;4989673;28;20473;-75
2023/04/15 00:02:34;;;;;;;6.68;2.00;;;;;;;17.54;52.97;99205.59;4976251;28;20073;-76
2023/04/15 00:05:00;;;;;;;8.18;2.58;;;;;;;17.53;53.15;99203.91;4976681;28;20026;-76
2023/04/15 00:07:25;;;;;;;8.00;2.65;;;;;;;17.51;53.21;99200.47;4976364;28;20595;-76
2023/04/15 00:09:53;;;;;;;8.95;2.47;;;;;;;17.53;52.99;99198.63;4980678;28;20113;-76
2023/04/15 00:12:20;;;;;;;7.35;2.40;;;;;;;17.51;53.14;99196.06;4996095;28;20361;-76
2023/04/15 00:14:46;;;;;;;7.65;2.30;;;;;;;17.51;53.37;99206.63;4995791;28;20558;-76
2023/04/15 00:17:12;;;;;;;8.15;2.63;;;;;;;17.52;53.15;99196.88;4995411;28;20030;-75
2023/04/15 00:19:37;;;;;;;6.93;2.15;;;;;;;17.53;52.89;99196.00;4993217;28;20038;-75
2023/04/15 00:22:02;;;;;;;7.10;2.63;;;;;;;17.51;53.15;99195.19;4976163;28;20090;-76
2023/04/15 00:24:29;;;;;;;11.15;2.22;;;;;;;17.51;52.84;99189.91;4976094;28;20066;-76
2023/04/15 00:26:55;;;;;;;7.18;2.28;;;;;;;17.49;53.15;99191.78;4976101;28;20066;-76
2023/04/15 00:29:20;;;;;;;9.13;2.80;;;;;;;17.50;52.88;99198.75;4975905;28;20062;-76
2023/04/15 00:31:45;;;;;;;8.15;2.30;;;;;;;17.50;53.10;99204.03;4975840;28;20026;-76
2023/04/15 00:34:11;;;;;;;9.25;2.72;;;;;;;17.46;52.90;99200.72;4976153;28;20500;-75
2023/04/15 00:36:37;;;;;;;7.60;2.53;;;;;;;17.47;52.70;99198.94;4991924;28;20037;-76
2023/04/15 00:39:02;;;;;;;8.23;2.60;;;;;;;17.48;52.81;99198.00;4995198;28;20035;-76
2023/04/15 00:41:28;;;;;;;8.10;2.53;;;;;;;17.46;52.97;99198.06;4995295;28;20717;-76
2023/04/15 00:43:53;;;;;;;8.57;2.33;;;;;;;17.45;52.99;99205.13;4989104;28;20034;-75
2023/04/15 00:46:20;;;;;;;10.05;2.47;;;;;;;17.43;52.93;99190.28;4981421;28;20031;-76
2023/04/15 00:48:46;;;;;;;7.93;2.30;;;;;;;17.45;53.21;99197.19;4975455;28;20023;-76
2023/04/15 00:51:12;;;;;;;7.43;2.42;;;;;;;17.44;52.93;99200.78;4975733;28;20101;-76
2023/04/15 00:53:38;;;;;;;8.77;2.53;;;;;;;17.43;53.10;99191.16;4975718;28;20026;-76
2023/04/15 00:56:04;;;;;;;7.30;2.00;;;;;;;17.43;53.07;99183.25;4986683;28;20029;-76
2023/04/15 00:58:30;;;;;;;11.45;2.65;;;;;;;17.40;52.86;99180.78;4994240;28;20022;-76
2023/04/15 01:00:56;;;;;;;8.50;2.83;;;;;;;17.42;52.85;99181.53;4975059;28;20085;-76
2023/04/15 01:03:21;;;;;;;7.45;2.25;;;;;;;17.41;53.02;99185.13;4975524;28;20137;-76
2023/04/15 01:05:47;;;;;;;8.93;2.63;;;;;;;17.43;53.05;99188.53;4984778;28;20370;-75
2023/04/15 01:08:13;;;;;;;7.60;2.38;;;;;;;17.42;52.72;99184.19;4995141;28;20011;-75
2023/04/15 01:10:39;;;;;;;8.77;2.85;;;;;;;17.40;52.81;99188.69;4994907;28;20037;-75
2023/04/15 01:13:04;;;;;;;7.22;2.10;;;;;;;17.40;53.01;99191.34;4994662;28;20101;-76
2023/04/15 01:15:30;;;;;;;8.73;2.60;;;;;;;17.40;52.99;99203.66;4994640;28;20022;-75
2023/04/15 01:17:59;;;;;;;9.52;2.78;;;;;;;17.42;52.86;99202.66;4994810;28;20026;-76
2023/04/15 01:20:26;;;;;;;8.15;3.22;;;;;;;17.40;52.61;99201.88;4978968;28;20022;-76
2023/04/15 01:22:53;;;;;;;10.73;3.00;;;;;;;17.40;52.82;99193.09;4974795;28;20023;-75
2023/04/15 01:25:32;;;;;;;6.45;2.10;;;;;;;17.40;52.88;99203.66;4975059;28;20069;-77
2023/04/15 01:27:58;;;;;;;7.82;2.53;;;;;;;17.39;52.88;99205.44;4974942;28;20115;-76
2023/04/15 01:30:24;;;;;;;8.00;2.28;;;;;;;17.39;52.74;99205.44;4983370;28;20030;-75
2023/04/15 01:32:50;;;;;;;9.32;2.75;;;;;;;17.38;52.68;99195.81;4993993;28;20026;-76
2023/04/15 01:35:16;;;;;;;6.28;2.15;;;;;;;17.39;52.79;99192.25;4993805;28;20452;-76
2023/04/15 01:37:41;;;;;;;6.88;2.00;;;;;;;17.38;52.92;99189.69;4994333;28;20057;-76
2023/04/15 01:40:07;;;;;;;8.15;2.53;;;;;;;17.37;52.63;99187.97;4986976;28;20050;-75
2023/04/15 01:42:35;;;;;;;7.75;2.50;;;;;;;17.37;52.58;99199.38;4974580;28;20065;-76
2023/04/15 01:45:00;;;;;;;8.02;2.45;;;;;;;17.35;52.86;99195.97;4974361;28;20370;-75
2023/04/15 01:47:26;;;;;;;7.57;2.40;;;;;;;17.35;52.51;99203.91;4974215;28;20037;-76
2023/04/15 01:49:52;;;;;;;11.18;2.70;;;;;;;17.38;52.56;99208.16;4979428;28;20523;-75
2023/04/15 01:52:17;;;;;;;9.43;2.50;;;;;;;17.34;52.65;99199.53;4994185;28;20050;-75
2023/04/15 01:54:43;;;;;;;8.82;2.70;;;;;;;17.35;52.68;99190.72;4976584;28;20045;-76
2023/04/15 01:57:08;;;;;;;7.78;2.30;;;;;;;17.34;52.58;99199.53;4993312;28;20026;-75
2023/04/15 01:59:35;;;;;;;11.02;2.58;;;;;;;17.34;52.35;99194.25;4991507;28;20455;-76
2023/04/15 02:02:00;;;;;;;7.55;2.28;;;;;;;17.33;52.79;99189.91;4975641;28;20038;-76
2023/04/15 02:04:26;;;;;;;7.63;2.55;;;;;;;17.34;52.61;99194.25;4992662;28;20400;-75
2023/04/15 02:06:52;;;;;;;7.90;2.45;;;;;;;17.30;52.72;99195.34;4993831;28;20063;-75
2023/04/15 02:09:17;;;;;;;10.35;3.05;;;;;;;17.32;52.73;99211.94;4993629;28;20030;-76
2023/04/15 02:11:43;;;;;;;7.72;2.28;;;;;;;17.33;52.62;99213.66;4974358;28;20030;-76
2023/04/15 02:14:09;;;;;;;9.75;3.00;;;;;;;17.32;52.48;99217.22;4973987;28;20038;-76
2023/04/15 02:16:34;;;;;;;9.82;2.80;;;;;;;17.32;52.79;99222.50;4974141;28;20393;-76
2023/04/15 02:19:00;;;;;;;6.40;1.95;;;;;;;17.31;52.66;99223.44;4973891;28;20042;-75
2023/04/15 02:21:26;;;;;;;7.78;2.65;;;;;;;17.33;52.79;99213.66;4990621;28;20109;-75
2023/04/15 02:23:52;;;;;;;7.93;2.70;;;;;;;17.30;52.59;99216.44;4993006;28;20027;-75
2023/04/15 02:26:19;;;;;;;5.75;2.17;;;;;;;17.29;52.65;99212.13;4993187;28;20153;-76
2023/04/15 02:28:45;;;;;;;8.70;2.38;;;;;;;17.28;52.73;99210.38;4993062;28;20401;-76
2023/04/15 02:31:10;;;;;;;8.15;2.30;;;;;;;17.32;52.75;99211.94;4975643;28;20018;-76
2023/04/15 02:33:36;;;;;;;6.10;1.83;;;;;;;17.29;52.41;99198.94;4993400;28;20023;-76
2023/04/15 02:36:02;;;;;;;7.28;2.22;;;;;;;17.30;52.53;99208.53;4982039;28;20030;-75
2023/04/15 02:38:28;;;;;;;8.25;2.53;;;;;;;17.31;52.57;99210.25;4973322;28;20077;-75
2023/04/15 02:40:53;;;;;;;7.82;2.88;;;;;;;17.27;52.60;99213.94;4971295;28;20073;-75
2023/04/15 02:43:19;;;;;;;6.55;1.98;;;;;;;17.27;52.84;99208.69;4972843;28;20636;-76
2023/04/15 02:45:46;;;;;;;8.60;2.38;;;;;;;17.27;52.57;99219.22;4973135;28;20018;-76
2023/04/15 02:48:11;;;;;;;8.48;1.90;;;;;;;17.27;52.75;99219.22;4973482;28;20535;-75
2023/04/15 02:50:39;;;;;;;7.78;1.98;;;;;;;17.26;52.50;99230.72;4973469;28;20022;-76
2023/04/15 02:53:05;;;;;;;6.25;1.80;;;;;;;17.25;52.55;99226.38;4973618;28;20531;-76
2023/04/15 02:55:30;;;;;;;8.00;2.10;;;;;;;17.26;52.29;99217.53;4972030;28;20110;-75
2023/04/15 02:57:59;;;;;;;6.28;1.85;;;;;;;17.26;52.68;99220.16;4972943;28;20081;-75
2023/04/15 03:00:24;;;;;;;5.68;1.50;;;;;;;17.26;52.42;99223.66;4973528;28;20023;-75
2023/04/15 03:02:55;;;;;;;8.15;2.45;;;;;;;17.24;52.89;99225.50;4973173;28;20030;-75
2023/04/15 03:05:22;;;;;;;5.97;1.85;;;;;;;17.23;52.70;99222.97;4973556;28;20381;-75
2023/04/15 03:07:47;;;;;;;7.00;1.65;;;;;;;17.23;52.52;99213.25;4973507;28;20109;-75
2023/04/15 03:10:13;;;;;;;7.28;1.92;;;;;;;17.23;52.50;99212.41;4973484;28;20481;-75
2023/04/15 03:12:39;;;;;;;5.85;1.92;;;;;;;17.23;52.38;99213.25;4973220;28;20055;-76
2023/04/15 03:15:05;;;;;;;7.65;2.20;;;;;;;17.23;52.41;99207.16;4971782;28;20058;-76
2023/04/15 03:17:31;;;;;;;7.25;2.10;;;;;;;17.22;52.60;99215.97;4973572;28;20102;-76
2023/04/15 03:19:56;;;;;;;5.70;1.85;;;;;;;17.23;52.49;99212.41;4973230;28;20477;-75
2023/04/15 03:22:21;;;;;;;7.18;1.98;;;;;;;17.18;52.65;99216.13;4973252;28;20118;-75
2023/04/15 03:24:47;;;;;;;7.63;2.15;;;;;;;17.21;52.50;99211.63;4973282;28;20034;-75
2023/04/15 03:27:12;;;;;;;5.35;1.58;;;;;;;17.20;52.47;99207.28;4972881;28;20486;-75
2023/04/15 03:29:38;;;;;;;4.72;1.50;;;;;;;17.16;52.78;99204.78;4973428;28;20106;-75
2023/04/15 03:32:03;;;;;;;5.40;1.52;;;;;;;17.19;52.66;99214.31;4973037;28;20485;-75
2023/04/15 03:34:28;;;;;;;6.75;1.88;;;;;;;17.23;52.36;99221.16;4973174;28;20058;-75
2023/04/15 03:36:55;;;;;;;5.90;1.92;;;;;;;17.20;52.61;99220.47;4973284;28;20093;-75
2023/04/15 03:39:20;;;;;;;5.53;1.58;;;;;;;17.21;52.36;99214.25;4973021;28;20046;-76
2023/04/15 03:41:46;;;;;;;5.88;1.73;;;;;;;17.21;52.33;99216.88;4972714;28;20565;-76
2023/04/15 03:44:11;;;;;;;5.50;1.70;;;;;;;17.17;52.60;99218.81;4972481;28;20031;-76
2023/04/15 03:46:36;;;;;;;5.82;1.45;;;;;;;17.21;52.63;99235.34;4972993;28;20109;-76
2023/04/15 03:49:02;;;;;;;5.32;1.60;;;;;;;17.20;52.19;99245.06;4973032;28;20532;-76
2023/04/15 03:51:28;;;;;;;5.60;1.65;;;;;;;17.17;52.49;99235.50;4973071;28;20614;-75
2023/04/15 03:53:53;;;;;;;6.25;1.80;;;;;;;17.20;52.61;99233.66;4972505;28;20499;-75
2023/04/15 03:56:18;;;;;;;5.43;1.70;;;;;;;17.17;52.41;99240.78;4972738;28;20031;-76
2023/04/15 03:58:44;;;;;;;4.70;1.58;;;;;;;17.18;52.59;99247.75;4972998;28;20540;-75
2023/04/15 04:01:09;;;;;;;4.13;1.33;;;;;;;17.20;52.25;99239.78;4972861;28;20027;-75
2023/04/15 04:03:36;;;;;;;5.28;1.30;;;;;;;17.16;52.57;99249.59;4971665;28;20035;-76
2023/04/15 04:06:01;;;;;;;5.70;1.45;;;;;;;17.17;52.45;99250.47;4972724;28;20029;-76
2023/04/15 04:08:26;;;;;;;5.90;1.63;;;;;;;17.16;52.30;99254.88;4972813;28;20034;-76
2023/04/15 04:10:52;;;;;;;5.60;1.27;;;;;;;17.17;52.43;99247.84;4972205;28;20015;-75
2023/04/15 04:13:17;;;;;;;4.78;1.17;;;;;;;17.17;52.32;99251.34;4972495;28;20066;-76
2023/04/15 04:15:43;;;;;;;4.88;1.23;;;;;;;17.18;52.17;99253.03;4972644;28;20023;-76
2023/04/15 04:18:08;;;;;;;5.35;1.40;;;;;;;17.18;52.23;99247.75;4972666;28;20503;-75
2023/04/15 04:20:34;;;;;;;5.47;1.30;;;;;;;17.15;52.44;99247.91;4975873;28;20089;-75
2023/04/15 04:22:59;;;;;;;4.47;1.45;;;;;;;17.15;52.35;99249.69;4976241;28;20088;-75
2023/04/15 04:25:25;;;;;;;4.97;1.45;;;;;;;17.16;52.32;99246.97;4975901;28;20063;-75
2023/04/15 04:27:50;;;;;;;3.75;1.15;;;;;;;17.17;52.39;99232.00;4976281;28;20023;-75
2023/04/15 04:30:15;;;;;;;4.25;1.30;;;;;;;17.15;52.19;99245.25;4975830;28;20409;-76
2023/04/15 04:32:41;;;;;;;3.60;1.27;;;;;;;17.16;52.09;99254.03;4975967;28;20030;-76
2023/04/15 04:35:07;;;;;;;4.15;1.25;;;;;;;17.16;52.38;99254.88;4976257;28;20058;-75
2023/04/15 04:37:33;;;;;;;4.47;1.35;;;;;;;17.16;52.42;99248.75;4975790;28;20054;-76
2023/04/15 04:39:58;;;;;;;4.00;1.00;;;;;;;17.15;52.38;99247.91;4986705;28;20120;-75
2023/04/15 04:42:23;;;;;;;6.35;1.75;;;;;;;17.14;52.44;99262.00;4995435;28;20109;-76
2023/04/15 04:44:49;;;;;;;4.30;1.40;;;;;;;17.13;52.17;99265.59;4975753;28;20038;-76
2023/04/15 04:47:14;;;;;;;5.75;1.30;;;;;;;17.16;52.17;99269.84;4975674;28;20129;-75
2023/04/15 04:49:40;;;;;;;5.93;1.33;;;;;;;17.15;52.27;99266.34;4975653;28;20031;-77
2023/04/15 04:52:06;;;;;;;5.55;1.30;;;;;;;17.12;52.16;99263.88;4975470;28;20430;-75
2023/04/15 04:54:31;;;;;;;4.22;1.33;;;;;;;17.13;52.39;99262.09;4975589;28;20448;-75
2023/04/15 04:56:57;;;;;;;5.93;1.35;;;;;;;17.12;52.45;99263.00;4975513;28;20034;-75
2023/04/15 04:59:23;;;;;;;4.35;1.10;;;;;;;17.10;52.44;99265.72;4984880;28;20064;-76
2023/04/15 05:01:49;;;;;;;3.88;1.00;;;;;;;17.12;52.35;99266.50;4977592;28;20082;-76
2023/04/15 05:04:14;;;;;;;6.10;1.52;;;;;;;17.13;52.11;99270.84;4957909;28;20030;-75
2023/04/15 05:06:40;;;;;;;4.47;1.33;;;;;;;17.10;52.47;99271.00;4957810;28;20035;-76
2023/04/15 05:09:05;;;;;;;3.70;1.30;;;;;;;17.10;52.34;99278.91;4982475;28;20030;-75
2023/04/15 05:11:30;;;;;;;4.78;1.10;;;;;;;17.11;52.29;99279.75;4978540;28;20026;-76
2023/04/15 05:13:57;;;;;;;5.10;1.20;;;;;;;17.13;52.35;99283.16;4975398;28;20035;-76
2023/04/15 05:16:22;;;;;;;4.63;1.20;;;;;;;17.10;52.11;99280.69;4975415;28;20500;-76
2023/04/15 05:18:47;;;;;;;3.45;1.17;;;;;;;17.10;52.33;99297.34;4979401;28;20099;-75
2023/04/15 05:21:13;;;;;;;6.70;1.35;;;;;;;17.11;52.24;99282.41;4994359;28;20030;-76
2023/04/15 05:23:38;;;;;;;5.32;1.27;;;;;;;17.12;52.53;99284.09;4977179;28;20030;-75
2023/04/15 05:26:04;;;;;;;4.15;1.00;;;;;;;17.12;52.16;99289.38;4994389;28;20405;-75
2023/04/15 05:28:29;;;;;;;5.05;1.40;;;;;;;17.10;52.32;99302.63;4992852;28;20030;-75
2023/04/15 05:30:55;;;;;;;4.50;1.40;;;;;;;17.11;52.36;99292.94;4956341;28;20042;-75
2023/04/15 05:33:21;;;;;;;6.28;1.25;;;;;;;17.09;52.37;99292.19;4974818;28;20035;-75
2023/04/15 05:35:46;;;;;;;5.68;1.52;;;;;;;17.09;52.30;99287.75;4974547;28;20033;-75
2023/04/15 05:38:11;;;;;;;4.82;1.25;;;;;;;17.07;52.34;99305.44;4974742;28;20034;-75
2023/04/15 05:40:37;;;;;;;5.47;1.30;;;;;;;17.08;52.54;99309.75;4992030;28;20050;-76
2023/04/15 05:43:02;;;;;;;3.97;1.17;;;;;;;17.08;52.19;99317.66;4988644;28;20397;-76
2023/04/15 05:45:28;;;;;;;5.70;1.83;;;;;;;17.09;52.14;99321.19;4957030;28;20030;-76
2023/04/15 05:47:53;;;;;;;5.28;1.13;;;;;;;17.08;52.11;99319.44;4974683;28;20032;-76
2023/04/15 05:50:20;;;;;;;6.80;1.40;;;;;;;17.07;52.12;99315.09;4974039;28;20021;-75
2023/04/15 05:52:45;;;;;;;4.68;1.35;;;;;;;17.06;52.41;99316.91;4974405;28;20033;-76
2023/04/15 05:55:11;;;;;;;5.25;1.20;;;;;;;17.04;52.14;99321.38;4974547;28;20101;-75
2023/04/15 05:57:37;;;;;;;5.60;1.70;;;;;;;17.01;52.50;99324.13;4974652;28;20507;-76
2023/04/15 06:00:04;;;;;;;5.25;1.42;;;;;;;17.02;52.28;99320.56;4974327;28;20042;-76
2023/04/15 06:02:30;;;;;;;4.68;1.30;;;;;;;17.01;52.47;99324.13;4954988;29;20086;-76
2023/04/15 06:04:56;;;;;;;3.95;1.17;;;;;;;17.02;52.56;99328.47;4954381;29;20067;-75
2023/04/15 06:07:22;;;;;;;4.82;1.50;;;;;;;17.01;52.24;99326.78;4954867;29;20023;-76
2023/04/15 06:09:48;;;;;;;5.22;1.25;;;;;;;17.03;52.16;99330.22;4954676;29;20047;-75
2023/04/15 06:12:14;;;;;;;3.72;1.13;;;;;;;17.03;52.40;99344.25;4969788;28;20105;-75
2023/04/15 06:14:39;;;;;;;4.35;1.00;;;;;;;17.02;52.25;99337.28;4974145;28;20027;-75
2023/04/15 06:17:05;;;;;;;3.33;1.15;;;;;;;17.01;52.21;99345.22;4956667;28;20035;-75
2023/04/15 06:19:31;;;;;;;4.63;1.00;;;;;;;17.02;52.37;99341.66;4973568;28;20473;-76
2023/04/15 06:21:57;;;;;;;4.80;1.13;;;;;;;17.00;52.48;99359.34;4980338;28;20036;-76
2023/04/15 06:24:23;;;;;;;4.05;1.25;;;;;;;17.00;52.53;99369.88;4993276;28;20046;-76
2023/04/15 06:26:48;;;;;;;3.85;1.08;;;;;;;17.00;52.55;99369.88;4993577;28;20361;-75
2023/04/15 06:29:14;;;;;;;4.32;1.08;;;;;;;17.01;52.30;99390.03;4992805;28;20134;-76
2023/04/15 06:31:39;;;;;;;5.63;1.20;;;;;;;17.01;52.38;99405.84;4988704;28;20031;-76
2023/04/15 06:34:05;;;;;;;3.55;1.25;;;;;;;16.98;52.42;99413.88;4973251;28;20039;-76
2023/04/15 06:36:31;;;;;;;4.40;1.40;;;;;;;16.98;52.59;99408.63;4973420;28;20039;-77
2023/04/15 06:38:56;;;;;;;5.03;1.02;;;;;;;16.97;52.41;99417.44;4973647;28;20141;-78
2023/04/15 06:41:22;;;;;;;3.85;1.13;;;;;;;16.97;52.77;99433.25;4972682;28;20409;-76
2023/04/15 06:43:47;;;;;;;3.53;1.05;;;;;;;16.97;52.40;99430.63;4973197;28;20473;-77
2023/04/15 06:46:13;;;;;;;4.85;1.05;;;;;;;16.98;52.60;99429.69;4973611;28;20105;-75
2023/04/15 06:48:38;;;;;;;4.50;1.00;;;;;;;16.96;52.56;99442.09;4973206;28;20077;-76
2023/04/15 06:51:04;;;;;;;3.35;1.08;;;;;;;16.97;52.57;99443.81;4973564;28;20027;-76
2023/04/15 06:53:29;;;;;;;4.68;1.30;;;;;;;16.97;52.60;99443.81;4972988;28;20031;-77
2023/04/15 06:55:55;;;;;;;2.47;0.90;;;;;;;16.96;52.46;99447.38;4973120;28;20089;-76
2023/04/15 06:58:21;;;;;;;3.58;0.93;;;;;;;16.94;52.63;99443.97;4973360;28;20027;-76
2023/04/15 07:00:46;;;;;;;4.13;1.20;;;;;;;16.94;52.36;99451.88;4973572;28;20054;-76
2023/04/15 07:03:12;;;;;;;3.20;0.98;;;;;;;16.94;52.69;99446.59;4972853;28;20147;-76
2023/04/15 07:05:38;;;;;;;3.30;0.80;;;;;;;16.94;52.61;99443.97;4973323;28;20038;-76
2023/04/15 07:08:04;;;;;;;4.85;0.98;;;;;;;16.94;52.52;99459.78;4973088;28;20041;-76
2023/04/15 07:10:30;;;;;;;4.10;1.02;;;;;;;16.92;52.65;99457.19;4971926;28;20030;-76
2023/04/15 07:12:56;;;;;;;3.92;1.00;;;;;;;16.92;52.38;99460.66;4973577;28;20035;-75
2023/04/15 07:15:22;;;;;;;4.18;1.15;;;;;;;16.94;52.75;99463.25;4972887;28;20023;-75
2023/04/15 07:17:47;;;;;;;4.38;1.10;;;;;;;16.92;52.63;99468.59;4973001;28;20050;-76
2023/04/15 07:20:13;;;;;;;3.60;0.90;;;;;;;16.94;52.57;99465.03;4973405;28;20481;-75
2023/04/15 07:22:39;;;;;;;3.00;0.95;;;;;;;16.96;52.26;99464.06;4973223;28;20030;-75
2023/04/15 07:25:05;;;;;;;3.75;1.00;;;;;;;16.97;52.33;99475.44;4973176;28;20027;-76
2023/04/15 07:27:30;;;;;;;5.07;0.88;;;;;;;16.95;52.57;99475.50;4973031;28;20392;-76
2023/04/15 07:29:56;;;;;;;2.33;0.73;;;;;;;16.95;52.58;99474.66;4973048;28;20110;-75
2023/04/15 07:32:21;;;;;;;2.05;0.77;;;;;;;16.94;52.33;99465.88;4972862;28;20097;-76
2023/04/15 07:34:47;;;;;;;4.50;1.27;;;;;;;16.96;52.43;99474.59;4973060;28;20031;-75
2023/04/15 07:37:12;;;;;;;3.00;0.82;;;;;;;16.97;52.60;99470.16;4971799;28;20030;-76
2023/04/15 07:39:38;;;;;;;2.63;0.82;;;;;;;16.97;52.54;99470.16;4981063;28;20043;-75
2023/04/15 07:42:03;;;;;;;3.72;0.90;;;;;;;16.96;52.79;99479.00;4986372;28;20473;-76
2023/04/15 07:44:29;;;;;;;5.13;0.93;;;;;;;16.97;52.38;99480.72;4972792;28;20039;-75
2023/04/15 07:46:55;;;;;;;2.70;0.93;;;;;;;16.97;52.58;99475.44;4972767;28;20031;-78
2023/04/15 07:49:20;;;;;;;1.98;0.63;;;;;;;16.97;52.60;99476.31;4972799;28;20026;-76
2023/04/15 07:51:47;;;;;;;2.42;0.60;;;;;;;17.00;52.62;99480.59;4976586;28;20088;-76
2023/04/15 07:54:13;;;;;;;3.40;1.15;;;;;;;17.00;52.23;99477.97;4993723;28;20481;-75
2023/04/15 07:56:41;;;;;;;3.42;1.00;;;;;;;17.03;52.44;99480.47;4996199;28;20029;-76
2023/04/15 07:59:08;;;;;;;4.32;1.13;;;;;;;17.03;52.24;99475.19;4996205;28;20037;-74
2023/04/15 08:01:35;;;;;;;3.25;0.90;;;;;;;17.03;52.48;99485.75;4993682;28;20031;-75
2023/04/15 08:04:01;;;;;;;2.35;0.68;;;;;;;17.03;52.23;99476.06;4976383;28;20037;-75
2023/04/15 08:06:26;;;;;;;1.77;0.55;;;;;;;17.05;52.40;99489.19;4976697;28;20019;-76
2023/04/15 08:08:53;;;;;;;2.50;0.77;;;;;;;17.06;52.60;99480.34;4978096;28;20035;-75
2023/04/15 08:11:22;;;;;;;3.05;0.90;;;;;;;17.06;52.48;99479.47;4976058;28;20030;-76
2023/04/15 08:13:47;;;;;;;4.38;1.00;;;;;;;17.09;52.45;99485.47;4957009;29;20531;-75
2023/04/15 08:16:20;;;;;;;2.60;0.70;;;;;;;17.08;52.18;99489.03;4955980;29;20031;-75
2023/04/15 08:18:46;;;;;;;3.22;0.80;;;;;;;17.10;52.43;99502.16;4956847;29;20042;-75
2023/04/15 08:21:12;;;;;;;2.47;0.70;;;;;;;17.09;52.63;99501.28;4956280;29;20030;-75
2023/04/15 08:23:38;;;;;;;1.70;0.65;;;;;;;17.09;52.34;99511.84;4985763;28;20022;-76
2023/04/15 08:26:04;;;;;;;2.67;0.75;;;;;;;17.12;52.30;99501.19;4995371;28;20050;-75
2023/04/15 08:28:30;;;;;;;2.83;0.95;;;;;;;17.10;52.29;99504.81;4992245;28;20728;-76
2023/04/15 08:30:56;;;;;;;5.05;1.02;;;;;;;17.10;52.38;99503.00;4975282;28;20033;-75
2023/04/15 08:33:21;;;;;;;4.25;1.02;;;;;;;17.11;52.36;99499.47;4966839;28;20470;-75
2023/04/15 08:35:48;;;;;;;2.20;0.90;;;;;;;17.11;52.51;99501.22;4984910;28;20030;-75
2023/04/15 08:38:13;;;;;;;3.25;1.00;;;;;;;17.12;52.39;99503.81;4975257;28;20089;-74
2023/04/15 08:40:44;;;;;;;4.30;1.00;;;;;;;17.15;52.51;99502.81;4975168;28;20529;-74
2023/04/15 08:43:21;;;;;;;3.22;1.00;;;;;;;17.14;52.30;99509.88;4974923;28;20030;-75
2023/04/15 08:45:50;;;;;;;3.45;0.73;;;;;;;17.15;52.48;99524.75;4973098;28;20105;-76
2023/04/15 08:48:16;;;;;;;2.28;0.70;;;;;;;17.14;52.30;99520.41;4970498;28;20481;-77
2023/04/15 08:50:42;;;;;;;2.42;0.90;;;;;;;17.16;52.19;99523.81;4969946;28;20040;-75
2023/04/15 08:53:09;;;;;;;2.20;0.70;;;;;;;17.15;52.21;99519.47;4972701;28;20035;-76
2023/04/15 08:55:38;;;;;;;3.42;0.80;;;;;;;17.16;52.47;99518.56;4973997;28;20389;-75
2023/04/15 08:58:05;;;;;;;3.13;0.90;;;;;;;17.17;52.41;99512.38;4973994;28;20139;-75
2023/04/15 09:00:32;;;;;;;2.33;0.82;;;;;;;17.18;52.32;99532.53;4974609;28;20161;-76
2023/04/15 09:02:58;;;;;;;3.58;0.88;;;;;;;17.22;52.32;99524.47;4975262;28;20544;-75
2023/04/15 09:05:24;;;;;;;1.52;0.63;;;;;;;17.20;51.74;99537.75;4963286;28;20708;-76
2023/04/15 09:07:50;;;;;;;2.03;0.88;;;;;;;17.26;52.36;99539.25;4964865;28;20035;-77
2023/04/15 09:10:16;;;;;;;2.80;0.63;;;;;;;17.23;52.27;99542.03;4966333;28;20036;-75
2023/04/15 09:12:41;;;;;;;3.75;1.10;;;;;;;17.27;52.28;99530.41;4966459;28;20031;-75
2023/04/15 09:15:11;;;;;;;7.07;1.90;;;;;;;17.29;53.04;99534.69;4975202;28;20027;-75
2023/04/15 09:17:42;;;;;;;8.10;1.98;;;;;;;17.33;52.93;99535.41;4958338;28;20085;-75
2023/04/15 09:20:13;;;;;;;7.15;1.50;;;;;;;17.35;53.66;99544.13;4974861;28;20031;-74
2023/04/15 09:22:40;;;;;;;7.28;1.50;;;;;;;17.35;53.54;99557.31;4972296;28;20046;-75
2023/04/15 09:25:27;;;;;;;4.25;1.30;;;;;;;17.35;53.24;99543.25;4974115;28;20031;-75
2023/04/15 09:27:58;;;;;;;8.60;1.70;;;;;;;17.38;53.22;99549.25;4974149;28;20412;-75
2023/04/15 09:30:24;;;;;;;6.55;1.45;;;;;;;17.38;53.34;99548.41;4970854;28;20030;-74
2023/04/15 09:32:54;;;;;;;7.38;1.67;;;;;;;17.38;53.33;99549.25;4972365;28;20031;-75
2023/04/15 09:35:21;;;;;;;5.75;1.30;;;;;;;17.42;53.56;99550.84;4970371;28;20094;-75
2023/04/15 09:37:47;;;;;;;8.50;1.90;;;;;;;17.40;53.67;99552.69;4970281;28;20663;-74
2023/04/15 09:40:13;;;;;;;6.22;1.20;;;;;;;17.42;53.89;99564.03;4965403;28;20046;-75
2023/04/15 09:43:00;;;;;;;7.47;1.55;;;;;;;17.48;53.45;99562.06;4956589;28;20784;-75
2023/04/15 09:45:26;;;;;;;7.93;1.85;;;;;;;17.50;53.65;99578.66;4967764;28;20046;-76
2023/04/15 09:47:52;;;;;;;9.63;1.90;;;;;;;17.54;53.46;99565.25;4973024;28;20034;-76
2023/04/15 09:50:19;;;;;;;8.10;1.70;;;;;;;17.52;53.54;99566.25;4971691;28;20034;-77
2023/04/15 09:52:46;;;;;;;10.75;2.15;;;;;;;17.52;53.05;99567.09;4971798;28;20058;-75
2023/04/15 09:55:12;;;;;;;9.10;2.05;;;;;;;17.55;53.25;99560.84;4973652;28;20102;-75
2023/04/15 09:57:40;;;;;;;17.35;5.32;;;;;;;17.57;52.83;99565.13;4973140;28;20019;-76
2023/04/15 10:00:07;;;;;;;36.95;13.07;;;;;;;17.61;52.64;99559.69;4973941;28;20476;-76
2023/04/15 10:02:34;;;;;;;35.00;12.25;;;;;;;17.59;52.46;99559.78;4972769;28;20023;-76
2023/04/15 10:05:01;;;;;;;29.63;7.88;;;;;;;17.59;52.32;99562.44;4969843;28;20042;-76
2023/04/15 10:07:26;;;;;;;17.75;4.63;;;;;;;17.62;52.01;99562.28;4974159;28;20106;-76
2023/04/15 10:09:52;;;;;;;12.43;3.10;;;;;;;17.62;51.93;99567.56;4953493;28;20126;-76
2023/04/15 10:12:19;;;;;;;10.32;2.88;;;;;;;17.61;51.93;99565.84;4963016;28;20497;-76
2023/04/15 10:14:53;;;;;;;9.63;2.40;;;;;;;17.63;51.88;99574.53;4973637;28;20053;-76
2023/04/15 10:17:21;;;;;;;7.97;1.75;;;;;;;17.60;51.48;99564.13;4971507;28;20062;-76
2023/04/15 10:19:48;;;;;;;7.82;1.90;;;;;;;17.59;51.61;99562.44;4974047;28;20026;-76
2023/04/15 10:22:14;;;;;;;10.95;2.15;;;;;;;17.60;51.31;99572.06;4972010;28;20038;-76
2023/04/15 10:24:39;;;;;;;8.40;2.13;;;;;;;17.62;51.43;99572.81;4973380;28;20034;-76
2023/04/15 10:27:05;;;;;;;6.70;1.50;;;;;;;17.63;51.27;99568.41;4973019;28;20023;-77
2023/04/15 10:29:31;;;;;;;6.95;1.60;;;;;;;17.62;51.33;99570.19;4968022;28;20035;-76
2023/04/15 10:31:58;;;;;;;8.85;2.33;;;;;;;17.63;51.45;99574.53;4969696;28;20026;-76
2023/04/15 10:34:24;;;;;;;7.35;2.20;;;;;;;17.62;51.24;99575.47;4972409;28;20535;-76
2023/04/15 10:36:50;;;;;;;7.13;1.70;;;;;;;17.63;51.34;99579.81;4969758;28;20374;-77
2023/04/15 10:39:35;;;;;;;10.15;2.13;;;;;;;17.65;50.98;99572.69;4972759;28;20045;-76
2023/04/15 10:42:10;;;;;;;9.52;2.15;;;;;;;17.69;51.41;99584.81;4971787;28;20428;-75
2023/04/15 10:44:42;;;;;;;6.68;1.92;;;;;;;17.69;51.05;99574.25;4968992;28;20035;-75
2023/04/15 10:47:17;;;;;;;7.53;2.17;;;;;;;17.71;51.09;99588.25;4973064;28;20054;-75
2023/04/15 10:49:57;;;;;;;9.97;2.47;;;;;;;17.71;51.17;99588.25;4971774;28;20027;-78
2023/04/15 10:52:26;;;;;;;10.10;2.20;;;;;;;17.73;51.03;99579.41;4971131;28;20106;-78
2023/04/15 10:55:10;;;;;;;11.82;3.10;;;;;;;17.71;51.16;99582.97;4971072;28;20034;-78
2023/04/15 10:57:39;;;;;;;12.52;2.88;;;;;;;17.71;51.31;99577.69;4967161;28;20058;-76
2023/04/15 11:00:08;;;;;;;12.27;3.10;;;;;;;17.73;51.08;99579.41;4962222;28;20117;-76
2023/04/15 11:02:47;;;;;;;10.05;3.20;;;;;;;17.74;51.28;99583.75;4963918;28;20141;-76
2023/04/15 11:05:16;;;;;;;8.98;2.50;;;;;;;17.74;50.88;99570.56;4965096;28;20030;-77
2023/04/15 11:07:47;;;;;;;8.40;2.55;;;;;;;17.73;51.05;99572.34;4961864;28;20048;-76
2023/04/15 11:10:13;;;;;;;10.52;2.13;;;;;;;17.75;50.94;99578.41;4965483;28;20564;-76
2023/04/15 11:12:39;;;;;;;9.93;2.55;;;;;;;17.74;51.10;99579.34;4958563;28;20063;-76
2023/04/15 11:15:33;;;;;;;8.85;2.33;;;;;;;17.75;51.02;99573.13;4968956;28;20118;-76
2023/04/15 11:18:22;;;;;;;8.52;2.55;;;;;;;17.77;50.96;99581.00;4971266;28;20030;-74
2023/04/15 11:20:50;;;;;;;7.72;2.20;;;;;;;17.78;50.73;99582.69;4972443;28;20031;-75
2023/04/15 11:23:18;;;;;;;7.43;2.30;;;;;;;17.78;50.72;99572.13;4970098;28;20381;-75
2023/04/15 11:25:43;;;;;;;6.45;2.35;;;;;;;17.79;51.01;99584.41;4972563;28;20030;-74
2023/04/15 11:28:10;;;;;;;8.93;2.20;;;;;;;17.82;50.68;99584.28;4974333;28;20042;-75